createdAt,value
2023-04-21T00:02:02.666Z,64.40
2023-04-21T00:04:32.580Z,64.30
2023-04-21T00:07:03.268Z,64.40
2023-04-21T00:09:30.565Z,64.60
2023-04-21T00:11:57.847Z,64.30
2023-04-21T00:14:25.134Z,64.30
2023-04-21T00:16:53.241Z,64.40
2023-04-21T00:19:20.801Z,64.30
2023-04-21T00:21:49.587Z,64.50
2023-04-21T00:24:16.825Z,64.50
2023-04-21T00:26:44.005Z,64.40
2023-04-21T00:29:11.167Z,64.50
2023-04-21T00:31:38.380Z,64.60
2023-04-21T00:34:05.784Z,64.70
2023-04-21T00:36:32.988Z,64.70
2023-04-21T00:39:01.772Z,64.50
2023-04-21T00:41:29.382Z,64.30
2023-04-21T00:44:00.760Z,64.50
2023-04-21T00:46:28.662Z,64.40
2023-04-21T00:48:55.854Z,64.40
2023-04-21T00:51:23.107Z,64.50
2023-04-21T00:53:51.102Z,64.40
2023-04-21T00:56:19.685Z,64.30
2023-04-21T00:58:47.953Z,64.40
2023-04-21T01:01:15.505Z,64.30
2023-04-21T01:03:47.651Z,64.10
2023-04-21T01:06:15.047Z,64.10
2023-04-21T01:08:42.513Z,64.10
2023-04-21T01:11:10.964Z,64.10
2023-04-21T01:13:41.824Z,64.20
2023-04-21T01:16:09.215Z,64.10
2023-04-21T01:18:36.955Z,64.20
2023-04-21T01:21:06.146Z,64.30
2023-04-21T01:23:36.484Z,64.30
2023-04-21T01:26:04.101Z,64.10
2023-04-21T01:28:31.284Z,64.00
2023-04-21T01:30:58.499Z,64.00
2023-04-21T01:33:26.105Z,63.90
2023-04-21T01:35:53.581Z,63.90
2023-04-21T01:38:22.436Z,63.70
2023-04-21T01:40:52.984Z,63.80
2023-04-21T01:43:23.949Z,63.80
2023-04-21T01:45:51.736Z,63.70
2023-04-21T01:48:19.192Z,63.50
2023-04-21T01:50:46.456Z,63.50
2023-04-21T01:53:13.687Z,63.50
2023-04-21T01:55:41.864Z,63.50
2023-04-21T01:58:11.517Z,63.50
2023-04-21T02:00:38.897Z,63.60
2023-04-21T02:03:06.635Z,63.60
2023-04-21T02:05:34.107Z,63.60
2023-04-21T02:08:01.383Z,63.50
2023-04-21T02:10:28.596Z,63.30
2023-04-21T02:12:55.757Z,63.50
2023-04-21T02:15:24.417Z,63.30
2023-04-21T02:17:52.084Z,63.20
2023-04-21T02:20:19.499Z,63.20
2023-04-21T02:22:46.973Z,63.30
2023-04-21T02:25:14.217Z,63.20
2023-04-21T02:27:41.843Z,63.20
2023-04-21T02:30:09.716Z,63.20
2023-04-21T02:32:38.357Z,63.20
2023-04-21T02:35:06.421Z,63.20
2023-04-21T02:37:34.296Z,63.20
2023-04-21T02:40:01.489Z,63.10
2023-04-21T02:42:32.325Z,63.10
2023-04-21T02:44:59.523Z,63.00
2023-04-21T02:47:27.915Z,63.10
2023-04-21T02:49:56.523Z,62.90
2023-04-21T02:52:24.732Z,63.00
2023-04-21T02:54:51.941Z,62.80
2023-04-21T02:57:19.156Z,63.00
2023-04-21T02:59:46.332Z,62.90
2023-04-21T03:02:13.656Z,62.90
2023-04-21T03:04:40.996Z,62.60
2023-04-21T03:07:13.697Z,62.40
2023-04-21T03:09:41.135Z,62.50
2023-04-21T03:12:08.340Z,62.70
2023-04-21T03:14:36.605Z,62.70
2023-04-21T03:17:03.799Z,62.70
2023-04-21T03:19:31.846Z,62.70
2023-04-21T03:21:59.057Z,62.80
2023-04-21T03:24:28.169Z,63.00
2023-04-21T03:26:56.909Z,62.90
2023-04-21T03:29:24.476Z,62.90
2023-04-21T03:31:51.661Z,62.70
2023-04-21T03:34:18.920Z,62.70
2023-04-21T03:36:46.138Z,62.60
2023-04-21T03:41:48.171Z,62.80
2023-04-21T03:44:15.474Z,63.00
2023-04-21T03:46:42.654Z,62.90
2023-04-21T03:49:10.068Z,63.00
2023-04-21T03:51:37.225Z,63.10
2023-04-21T03:54:04.478Z,63.00
2023-04-21T03:56:31.708Z,62.90
2023-04-21T03:59:00.848Z,63.00
2023-04-21T04:01:28.138Z,63.00
2023-04-21T04:03:55.486Z,63.10
2023-04-21T04:06:22.777Z,63.10
2023-04-21T04:08:49.970Z,63.10
2023-04-21T04:11:17.160Z,63.00
2023-04-21T04:13:44.408Z,63.00
2023-04-21T04:16:12.942Z,63.10
2023-04-21T04:18:40.281Z,63.00
2023-04-21T04:21:07.823Z,63.00
2023-04-21T04:23:35.149Z,62.90
2023-04-21T04:26:04.515Z,63.00
2023-04-21T04:28:31.945Z,63.00
2023-04-21T04:31:00.566Z,63.00
2023-04-21T04:33:29.205Z,62.90
2023-04-21T04:35:56.431Z,62.90
2023-04-21T04:38:23.632Z,62.90
2023-04-21T04:40:53.987Z,63.10
2023-04-21T04:43:21.454Z,62.90
2023-04-21T04:45:48.652Z,63.00
2023-04-21T04:48:16.210Z,63.10
2023-04-21T04:50:45.417Z,63.10
2023-04-21T04:53:12.598Z,63.20
2023-04-21T04:55:39.774Z,63.10
2023-04-21T04:58:07.055Z,63.00
2023-04-21T05:00:34.369Z,63.00
2023-04-21T05:03:01.697Z,63.10
2023-04-21T05:05:29.164Z,63.30
2023-04-21T05:07:57.744Z,63.00
2023-04-21T05:10:24.969Z,63.10
2023-04-21T05:12:52.233Z,62.90
2023-04-21T05:15:19.573Z,63.00
2023-04-21T05:17:46.849Z,63.10
2023-04-21T05:20:14.564Z,63.00
2023-04-21T05:22:41.846Z,62.90
2023-04-21T05:25:12.100Z,62.90
2023-04-21T05:27:39.346Z,62.90
2023-04-21T05:30:07.693Z,62.80
2023-04-21T05:32:35.324Z,62.70
2023-04-21T05:35:03.090Z,62.60
2023-04-21T05:37:30.359Z,62.60
2023-04-21T05:39:57.566Z,62.50
2023-04-21T05:42:26.258Z,62.40
2023-04-21T05:44:54.276Z,62.70
2023-04-21T05:47:21.540Z,63.20
2023-04-21T05:49:52.456Z,63.20
2023-04-21T05:52:19.734Z,63.40
2023-04-21T05:54:46.956Z,62.80
2023-04-21T05:57:14.351Z,62.50
2023-04-21T05:59:43.642Z,62.20
2023-04-21T06:02:11.437Z,61.90
2023-04-21T06:04:38.907Z,61.40
2023-04-21T06:07:07.107Z,61.60
2023-04-21T06:09:35.215Z,61.20
2023-04-21T06:12:02.534Z,60.80
2023-04-21T06:14:29.798Z,61.10
2023-04-21T06:16:58.474Z,60.80
2023-04-21T06:19:25.812Z,60.90
2023-04-21T06:21:53.031Z,60.70
2023-04-21T06:24:25.249Z,60.40
2023-04-21T06:26:53.356Z,60.40
2023-04-21T06:29:20.892Z,60.20
2023-04-21T06:31:48.282Z,60.70
2023-04-21T06:34:17.140Z,60.40
2023-04-21T06:36:44.854Z,59.40
2023-04-21T06:39:12.111Z,59.70
2023-04-21T06:41:39.394Z,59.90
2023-04-21T06:44:06.640Z,59.90
2023-04-21T06:46:33.863Z,59.10
2023-04-21T06:49:01.126Z,58.50
2023-04-21T06:51:29.670Z,58.60
2023-04-21T06:53:56.994Z,58.10
2023-04-21T06:56:24.198Z,58.60
2023-04-21T06:58:51.501Z,58.60
2023-04-21T07:01:18.966Z,58.40
2023-04-21T07:03:46.557Z,56.80
2023-04-21T07:06:13.900Z,58.30
2023-04-21T07:08:42.501Z,57.60
2023-04-21T07:11:09.762Z,57.40
2023-04-21T07:13:36.959Z,57.50
2023-04-21T07:16:04.482Z,57.80
2023-04-21T07:18:32.484Z,57.10
2023-04-21T07:20:59.678Z,57.30
2023-04-21T07:23:26.895Z,57.00
2023-04-21T07:25:59.949Z,56.40
2023-04-21T07:28:27.158Z,57.20
2023-04-21T07:30:54.452Z,56.40
2023-04-21T07:33:21.708Z,56.50
2023-04-21T07:35:49.085Z,57.30
2023-04-21T07:38:16.267Z,56.60
2023-04-21T07:40:43.585Z,55.50
2023-04-21T07:43:12.225Z,55.10
2023-04-21T07:45:39.456Z,55.10
2023-04-21T07:48:07.561Z,54.60
2023-04-21T07:50:37.926Z,54.40
2023-04-21T07:53:05.294Z,54.20
2023-04-21T07:55:32.582Z,55.10
2023-04-21T07:57:59.847Z,54.50
2023-04-21T08:00:28.348Z,54.10
2023-04-21T08:02:55.776Z,54.00
2023-04-21T08:05:23.135Z,54.90
2023-04-21T08:07:50.370Z,55.40
2023-04-21T08:10:17.713Z,53.60
2023-04-21T08:12:44.958Z,53.30
2023-04-21T08:15:12.510Z,53.00
2023-04-21T08:17:41.345Z,52.70
2023-04-21T08:20:09.745Z,53.10
2023-04-21T08:22:37.003Z,52.40
2023-04-21T08:25:05.575Z,51.90
2023-04-21T08:27:32.889Z,52.20
2023-04-21T08:30:00.464Z,52.60
2023-04-21T08:32:27.799Z,51.80
2023-04-21T08:34:56.379Z,52.10
2023-04-21T08:37:23.560Z,51.10
2023-04-21T08:39:51.011Z,50.80
2023-04-21T08:42:18.909Z,50.10
2023-04-21T08:44:46.649Z,48.30
2023-04-21T08:47:15.200Z,49.20
2023-04-21T08:49:45.080Z,48.60
2023-04-21T08:52:14.535Z,49.10
2023-04-21T08:54:42.558Z,49.10
2023-04-21T08:57:15.272Z,49.90
2023-04-21T08:59:45.734Z,49.70
2023-04-21T09:02:15.961Z,47.00
2023-04-21T09:04:45.098Z,47.80
2023-04-21T09:07:31.105Z,47.50
2023-04-21T09:10:00.330Z,48.60
2023-04-21T09:12:28.724Z,47.10
2023-04-21T09:14:58.101Z,48.50
2023-04-21T09:17:32.377Z,47.20
2023-04-21T09:20:13.393Z,47.30
2023-04-21T09:22:42.078Z,47.90
2023-04-21T09:25:09.412Z,47.00
2023-04-21T09:27:36.800Z,47.90
2023-04-21T09:30:06.476Z,47.40
2023-04-21T09:32:36.842Z,47.50
2023-04-21T09:35:04.627Z,46.50
2023-04-21T09:37:33.289Z,46.80
2023-04-21T09:40:05.063Z,46.70
2023-04-21T09:42:37.132Z,46.70
2023-04-21T09:47:41.228Z,45.90
2023-04-21T09:50:12.810Z,44.60
2023-04-21T09:52:40.673Z,44.10
2023-04-21T09:55:12.509Z,46.50
2023-04-21T09:57:42.149Z,45.50
2023-04-21T10:00:12.344Z,44.00
2023-04-21T10:02:44.620Z,45.40
2023-04-21T10:05:12.944Z,44.40
2023-04-21T10:07:40.569Z,43.10
2023-04-21T10:10:16.691Z,44.50
2023-04-21T10:12:44.661Z,43.90
2023-04-21T10:15:31.757Z,44.40
2023-04-21T10:18:16.861Z,44.20
2023-04-21T10:20:57.668Z,43.40
2023-04-21T10:23:29.606Z,43.50
2023-04-21T10:26:04.907Z,43.70
2023-04-21T10:28:42.817Z,41.90
2023-04-21T10:31:21.575Z,42.70
2023-04-21T10:34:12.169Z,43.60
2023-04-21T10:36:47.061Z,41.70
2023-04-21T10:39:26.626Z,42.50
2023-04-21T10:42:00.548Z,42.20
2023-04-21T10:44:29.352Z,41.30
2023-04-21T10:46:59.713Z,41.30
2023-04-21T10:49:30.128Z,41.30
2023-04-21T10:52:05.769Z,41.30
2023-04-21T10:54:41.607Z,41.90
2023-04-21T10:57:11.964Z,41.70
2023-04-21T10:59:39.495Z,40.00
2023-04-21T11:02:08.347Z,40.60
2023-04-21T11:04:36.392Z,42.30
2023-04-21T11:07:08.206Z,42.20
2023-04-21T11:09:36.248Z,40.30
2023-04-21T11:12:07.255Z,40.30
2023-04-21T11:14:37.297Z,40.40
2023-04-21T11:17:06.199Z,40.40
2023-04-21T11:19:33.617Z,40.20
2023-04-21T11:22:00.908Z,39.10
2023-04-21T11:24:28.117Z,38.70
2023-04-21T11:26:59.284Z,41.40
2023-04-21T11:29:26.617Z,38.40
2023-04-21T11:31:55.617Z,38.70
2023-04-21T11:34:25.090Z,38.90
2023-04-21T11:36:53.265Z,38.10
2023-04-21T11:39:22.191Z,37.80
2023-04-21T11:41:50.883Z,36.20
2023-04-21T11:44:32.003Z,36.80
2023-04-21T11:47:00.960Z,37.60
2023-04-21T11:49:29.370Z,34.80
2023-04-21T11:51:56.836Z,34.30
2023-04-21T11:54:24.667Z,34.70
2023-04-21T11:56:54.178Z,35.20
2023-04-21T11:59:25.723Z,33.80
2023-04-21T12:01:54.619Z,34.40
2023-04-21T12:04:24.727Z,33.30
2023-04-21T12:06:57.702Z,33.40
2023-04-21T12:09:25.869Z,33.50
2023-04-21T12:11:54.416Z,34.10
2023-04-21T12:14:23.247Z,33.30
2023-04-21T12:16:52.020Z,33.30
2023-04-21T12:19:24.466Z,30.60
2023-04-21T12:21:54.315Z,32.00
2023-04-21T12:24:21.512Z,32.00
2023-04-21T12:26:48.906Z,32.50
2023-04-21T12:29:16.161Z,33.80
2023-04-21T12:31:43.469Z,33.60
2023-04-21T12:34:10.781Z,33.80
2023-04-21T12:36:39.478Z,32.90
2023-04-21T12:39:07.218Z,30.50
2023-04-21T12:41:34.725Z,30.50
2023-04-21T12:44:02.135Z,30.90
2023-04-21T12:46:29.378Z,30.20
2023-04-21T12:48:56.702Z,31.80
2023-04-21T12:51:23.930Z,33.20
2023-04-21T12:53:52.464Z,31.60
2023-04-21T12:56:19.825Z,30.70
2023-04-21T12:58:48.262Z,32.00
2023-04-21T13:01:16.059Z,31.20
2023-04-21T13:03:43.490Z,31.40
2023-04-21T13:06:11.491Z,30.40
2023-04-21T13:08:38.739Z,31.90
2023-04-21T13:11:07.431Z,30.80
2023-04-21T13:13:34.626Z,31.00
2023-04-21T13:16:01.837Z,30.40
2023-04-21T13:18:29.068Z,29.50
2023-04-21T13:20:56.296Z,31.00
2023-04-21T13:23:23.517Z,30.10
2023-04-21T13:25:51.834Z,31.50
2023-04-21T13:28:20.620Z,32.40
2023-04-21T13:30:48.300Z,30.80
2023-04-21T13:33:15.554Z,29.50
2023-04-21T13:35:42.911Z,31.00
2023-04-21T13:38:10.175Z,31.80
2023-04-21T13:40:37.545Z,29.20
2023-04-21T13:43:05.217Z,31.00
2023-04-21T13:45:34.138Z,30.90
2023-04-21T13:48:01.414Z,30.30
2023-04-21T13:50:28.701Z,30.70
2023-04-21T13:52:55.913Z,30.80
2023-04-21T13:55:23.193Z,29.00
2023-04-21T13:57:50.576Z,30.70
2023-04-21T14:00:18.477Z,30.20
2023-04-21T14:02:47.253Z,30.40
2023-04-21T14:05:14.744Z,30.90
2023-04-21T14:07:42.760Z,30.00
2023-04-21T14:10:11.913Z,30.90
2023-04-21T14:12:39.199Z,30.80
2023-04-21T14:15:07.768Z,29.00
2023-04-21T14:17:35.043Z,28.40
2023-04-21T14:20:04.276Z,30.80
2023-04-21T14:22:31.446Z,30.80
2023-04-21T14:24:58.673Z,29.30
2023-04-21T14:27:26.001Z,29.50
2023-04-21T14:29:53.174Z,30.70
2023-04-21T14:32:20.867Z,30.70
2023-04-21T14:34:48.645Z,30.00
2023-04-21T14:37:17.153Z,29.20
2023-04-21T14:39:44.320Z,28.90
2023-04-21T14:42:11.567Z,30.10
2023-04-21T14:44:38.877Z,27.50
2023-04-21T14:47:10.323Z,29.80
2023-04-21T14:49:38.448Z,29.50
2023-04-21T14:52:06.820Z,29.40
2023-04-21T14:54:35.531Z,28.40
2023-04-21T14:57:18.665Z,28.30
2023-04-21T14:59:46.847Z,28.80
2023-04-21T15:02:14.541Z,28.50
2023-04-21T15:04:42.034Z,27.80
2023-04-21T15:07:09.298Z,29.20
2023-04-21T15:09:39.033Z,29.30
2023-04-21T15:12:07.411Z,29.00
2023-04-21T15:14:34.694Z,28.40
2023-04-21T15:17:02.065Z,29.00
2023-04-21T15:19:29.373Z,29.20
2023-04-21T15:21:56.970Z,28.40
2023-04-21T15:24:24.243Z,29.70
2023-04-21T15:26:53.086Z,28.70
2023-04-21T15:29:20.557Z,30.10
2023-04-21T15:31:47.969Z,29.30
2023-04-21T15:34:15.232Z,30.10
2023-04-21T15:36:42.442Z,29.00
2023-04-21T15:39:13.704Z,30.90
2023-04-21T15:41:41.104Z,29.40
2023-04-21T15:44:11.008Z,29.50
2023-04-21T15:46:38.352Z,28.80
2023-04-21T15:49:05.796Z,30.00
2023-04-21T15:51:34.571Z,29.40
2023-04-21T15:54:01.768Z,29.40
2023-04-21T15:56:33.029Z,28.80
2023-04-21T15:59:00.256Z,30.90
2023-04-21T16:01:29.019Z,30.30
2023-04-21T16:03:56.483Z,31.40
2023-04-21T16:06:25.292Z,30.20
2023-04-21T16:08:52.553Z,29.90
2023-04-21T16:11:19.903Z,30.60
2023-04-21T16:13:47.241Z,30.10
2023-04-21T16:16:14.562Z,30.60
2023-04-21T16:18:43.275Z,30.60
2023-04-21T16:21:10.768Z,30.30
2023-04-21T16:23:38.203Z,31.20
2023-04-21T16:26:06.274Z,30.40
2023-04-21T16:28:33.476Z,30.60
2023-04-21T16:31:00.743Z,30.70
2023-04-21T16:33:28.065Z,31.60
2023-04-21T16:35:57.612Z,31.00
2023-04-21T16:38:25.527Z,30.40
2023-04-21T16:40:52.842Z,31.10
2023-04-21T16:43:20.054Z,31.90
2023-04-21T16:45:47.329Z,32.60
2023-04-21T16:48:14.728Z,32.10
2023-04-21T16:50:42.152Z,31.10
2023-04-21T16:53:10.852Z,32.30
2023-04-21T16:55:38.061Z,32.10
2023-04-21T16:58:05.343Z,31.90
2023-04-21T17:00:32.674Z,33.00
2023-04-21T17:03:00.143Z,32.30
2023-04-21T17:05:27.495Z,32.50
2023-04-21T17:07:54.866Z,32.70
2023-04-21T17:10:24.373Z,33.20
2023-04-21T17:12:51.599Z,33.00
2023-04-21T17:15:18.902Z,34.20
2023-04-21T17:17:47.061Z,33.20
2023-04-21T17:20:14.994Z,34.10
2023-04-21T17:22:42.723Z,32.60
2023-04-21T17:25:11.520Z,33.20
2023-04-21T17:27:40.826Z,33.40
2023-04-21T17:30:09.412Z,35.20
2023-04-21T17:32:37.039Z,35.00
2023-04-21T17:35:06.012Z,34.20
2023-04-21T17:37:33.905Z,34.50
2023-04-21T17:40:02.970Z,34.40
2023-04-21T17:42:30.904Z,34.40
2023-04-21T17:44:59.415Z,35.30
2023-04-21T17:47:26.733Z,34.60
2023-04-21T17:49:53.949Z,35.00
2023-04-21T17:52:21.177Z,35.40
2023-04-21T17:54:48.372Z,35.00
2023-04-21T17:57:15.596Z,35.60
2023-04-21T17:59:42.830Z,36.00
2023-04-21T18:02:11.437Z,35.50
2023-04-21T18:04:39.398Z,36.20
2023-04-21T18:07:07.156Z,36.10
2023-04-21T18:09:34.375Z,36.20
2023-04-21T18:12:01.746Z,36.20
2023-04-21T18:14:29.436Z,36.20
2023-04-21T18:16:56.688Z,36.30
2023-04-21T18:19:25.189Z,36.90
2023-04-21T18:21:52.354Z,36.90
2023-04-21T18:24:19.571Z,36.50
2023-04-21T18:26:46.909Z,36.70
2023-04-21T18:29:17.435Z,37.00
2023-04-21T18:31:44.868Z,37.00
2023-04-21T18:34:14.185Z,37.30
2023-04-21T18:36:42.982Z,37.50
2023-04-21T18:39:10.592Z,37.70
2023-04-21T18:41:38.006Z,37.60
2023-04-21T18:44:08.219Z,37.30
2023-04-21T18:46:35.519Z,37.60
2023-04-21T18:49:02.740Z,37.60
2023-04-21T18:51:31.539Z,37.60
2023-04-21T18:54:00.093Z,38.00
2023-04-21T18:56:27.514Z,37.70
2023-04-21T18:58:54.856Z,38.10
2023-04-21T19:01:22.100Z,37.70
2023-04-21T19:03:49.585Z,37.60
2023-04-21T19:06:16.955Z,37.50
2023-04-21T19:08:44.168Z,37.50
2023-04-21T19:11:14.804Z,37.70
2023-04-21T19:13:42.029Z,37.90
2023-04-21T19:16:11.009Z,37.70
2023-04-21T19:18:38.278Z,37.90
2023-04-21T19:21:06.997Z,37.90
2023-04-21T19:23:34.287Z,37.80
2023-04-21T19:26:04.630Z,38.00
2023-04-21T19:28:33.214Z,38.20
2023-04-21T19:31:00.540Z,38.20
2023-04-21T19:33:27.939Z,38.30
2023-04-21T19:35:55.279Z,38.30
2023-04-21T19:38:22.548Z,38.50
2023-04-21T19:40:50.089Z,38.40
2023-04-21T19:43:19.301Z,38.90
2023-04-21T19:45:48.200Z,39.30
2023-04-21T19:48:15.794Z,38.60
2023-04-21T19:50:43.072Z,39.10
2023-04-21T19:53:14.873Z,39.10
2023-04-21T19:55:42.180Z,39.40
2023-04-21T19:58:09.649Z,39.20
2023-04-21T20:00:37.021Z,39.80
2023-04-21T20:03:06.811Z,39.80
2023-04-21T20:05:34.384Z,40.00
2023-04-21T20:08:01.633Z,39.50
2023-04-21T20:10:28.884Z,40.30
2023-04-21T20:12:56.078Z,40.00
2023-04-21T20:15:23.571Z,39.70
2023-04-21T20:17:50.880Z,40.00
2023-04-21T20:20:19.563Z,40.40
2023-04-21T20:22:47.813Z,40.50
2023-04-21T20:25:15.408Z,40.80
2023-04-21T20:27:42.681Z,40.70
2023-04-21T20:30:10.093Z,40.80
2023-04-21T20:32:37.392Z,41.10
2023-04-21T20:35:05.512Z,41.10
2023-04-21T20:37:34.701Z,41.20
2023-04-21T20:40:04.297Z,41.30
2023-04-21T20:42:31.594Z,41.60
2023-04-21T20:45:02.019Z,41.70
2023-04-21T20:47:29.606Z,42.10
2023-04-21T20:49:57.976Z,41.90
2023-04-21T20:52:25.529Z,42.20
2023-04-21T20:54:54.039Z,42.10
2023-04-21T20:57:21.287Z,42.30
2023-04-21T20:59:48.854Z,42.30
2023-04-21T21:02:16.165Z,42.40
2023-04-21T21:04:43.650Z,42.80
2023-04-21T21:07:11.050Z,42.30
2023-04-21T21:09:38.652Z,42.90
2023-04-21T21:12:07.437Z,43.00
2023-04-21T21:14:34.866Z,42.80
2023-04-21T21:17:02.936Z,42.80
2023-04-21T21:19:30.327Z,43.00
2023-04-21T21:21:57.530Z,43.90
2023-04-21T21:24:26.296Z,44.10
2023-04-21T21:26:53.495Z,43.70
2023-04-21T21:29:22.010Z,43.50
2023-04-21T21:31:49.200Z,43.60
2023-04-21T21:34:16.370Z,43.60
2023-04-21T21:36:43.589Z,43.90
2023-04-21T21:39:11.531Z,44.00
2023-04-21T21:41:38.826Z,43.60
2023-04-21T21:44:06.462Z,44.10
2023-04-21T21:46:35.113Z,44.10
2023-04-21T21:49:02.309Z,44.40
2023-04-21T21:51:29.615Z,44.20
2023-04-21T21:53:56.838Z,44.20
2023-04-21T21:56:25.665Z,44.20
2023-04-21T21:58:53.237Z,44.40
2023-04-21T22:01:20.680Z,44.40
2023-04-21T22:03:49.298Z,44.50
2023-04-21T22:06:17.453Z,44.70
2023-04-21T22:08:45.465Z,44.60
2023-04-21T22:11:12.718Z,44.80
2023-04-21T22:13:40.048Z,44.80
2023-04-21T22:16:07.479Z,45.10
2023-04-21T22:18:34.792Z,45.00
2023-04-21T22:21:04.060Z,45.10
2023-04-21T22:23:31.925Z,45.00
2023-04-21T22:25:59.162Z,45.00
2023-04-21T22:28:26.399Z,45.10
2023-04-21T22:30:53.832Z,45.20
2023-04-21T22:33:21.053Z,45.30
2023-04-21T22:35:48.312Z,45.50
2023-04-21T22:38:17.821Z,45.50
2023-04-21T22:40:45.055Z,45.40
2023-04-21T22:43:12.484Z,45.60
2023-04-21T22:45:39.733Z,45.60
2023-04-21T22:48:07.728Z,45.60
2023-04-21T22:50:35.090Z,45.80
2023-04-21T22:53:02.258Z,45.80
2023-04-21T22:55:30.834Z,45.90
2023-04-21T22:57:58.082Z,45.80
2023-04-21T23:00:25.492Z,46.10
2023-04-21T23:02:52.952Z,46.10
2023-04-21T23:05:20.368Z,46.10
2023-04-21T23:07:47.699Z,46.20
2023-04-21T23:10:14.929Z,46.40
2023-04-21T23:12:43.493Z,46.50
2023-04-21T23:15:11.292Z,46.40
2023-04-21T23:17:38.499Z,46.60
2023-04-21T23:20:07.180Z,46.60
2023-04-21T23:22:34.422Z,46.60
2023-04-21T23:25:01.632Z,46.80
2023-04-21T23:27:28.842Z,46.70
2023-04-21T23:29:57.353Z,46.90
2023-04-21T23:32:24.693Z,47.00
2023-04-21T23:34:53.258Z,46.90
2023-04-21T23:37:20.419Z,46.90
2023-04-21T23:39:47.668Z,47.10
2023-04-21T23:42:15.688Z,47.20
2023-04-21T23:44:43.020Z,47.20
2023-04-21T23:47:11.528Z,47.20
2023-04-21T23:49:38.990Z,47.20
2023-04-21T23:52:06.854Z,47.40
2023-04-21T23:54:34.077Z,47.70
2023-04-21T23:57:01.596Z,47.60
2023-04-21T23:59:28.791Z,47.70
